This is the latest recevied weather packets stored in our database for station/object SR8WXB-1. If no packets are shown the sender has not sent any weather packets the latest 1 day(s).
| Time | Temp. | Humidity | Pressure | Rain* | Wind** | Luminosity | Snow |
|---|---|---|---|---|---|---|---|
| 1836274706 | 12.22° C | 100% | 954.5 hPa | - | 2.68 m/s, 232° | - | - |
| 1836274467 | 12.78° C | 100% | 954.5 hPa | - | 3.13 m/s, 232° | - | - |
| 1836274439 | 12.22° C | 100% | 954.5 hPa | - | 2.68 m/s, 225° | - | - |
| 1836274223 | 12.22° C | 100% | 954.4 hPa | - | 3.58 m/s, 236° | - | - |
| 1836274196 | 12.22° C | 100% | 954.5 hPa | - | 3.13 m/s, 234° | - | - |
| 1836273983 | 12.22° C | 100% | 954.4 hPa | - | 4.02 m/s, 238° | - | - |
| 1778028255 | 15.56° C | 100% | 938 hPa | - | 4.92 m/s, 237° | - | - |
| 1778028012 | 15.56° C | 100% | 938 hPa | - | 5.36 m/s, 236° | - | - |
| 1778027772 | 15.56° C | 100% | 938 hPa | - | 5.36 m/s, 236° | - | - |
| 1778027532 | 16.11° C | 100% | 937.9 hPa | - | 4.47 m/s, 237° | - | - |
| 1778027292 | 16.11° C | 100% | 937.9 hPa | - | 4.02 m/s, 236° | - | - |
| 1778027052 | 16.11° C | 100% | 937.9 hPa | - | 5.36 m/s, 237° | - | - |
| 1778026809 | 16.11° C | 100% | 937.9 hPa | - | 5.36 m/s, 237° | - | - |
| 1778026569 | 16.11° C | 100% | 937.9 hPa | - | 4.92 m/s, 236° | - | - |
| 1778026329 | 16.11° C | 100% | 937.9 hPa | - | 5.36 m/s, 237° | - | - |
| 1778026089 | 16.11° C | 100% | 937.9 hPa | - | 4.92 m/s, 237° | - | - |
| 1778025849 | 16.11° C | 100% | 937.9 hPa | - | 4.92 m/s, 238° | - | - |
| 1778025595 | 16.11° C | 100% | 938 hPa | - | 4.92 m/s, 238° | - | - |
| 1778025355 | 15.56° C | 100% | 938 hPa | - | 4.47 m/s, 236° | - | - |
| 1778024875 | 15.56° C | 100% | 938 hPa | - | 4.92 m/s, 236° | - | - |
| 1778024635 | 15.56° C | 100% | 938 hPa | - | 4.92 m/s, 236° | - | - |
| 1778024392 | 15.56° C | 100% | 938.1 hPa | - | 4.92 m/s, 235° | - | - |
| 1778024152 | 15.56° C | 100% | 938.1 hPa | - | 4.47 m/s, 235° | - | - |
| 1778023913 | 15.56° C | 100% | 938.2 hPa | - | 4.47 m/s, 236° | - | - |
| 1778023673 | 15.56° C | 100% | 938.2 hPa | - | 4.02 m/s, 233° | - | - |
* Rain since midnight (hover to see other rain measurements)
** Current wind speed in m/s (hover to see current wind gust speed)